Time;durP1;ratioP1;P1;durP2;ratioP2;P2;SDS_P1;SDS_P2;PMS_P1;PMS_P2;Temp;Humidity;BMP_temperature;BMP_pressure;BME280_temperature;BME280_humidity;BME280_pressure;Samples;Min_cycle;Max_cycle;Signal;HPM_P1;HPM_P2
2023/06/13 00:00:11;;;;;;;4.90;2.95;;;461.20;2380.80;;;;;;4913453;29;20024;-71
2023/06/13 00:02:40;;;;;;;5.18;3.20;;;461.10;2380.80;;;;;;4900696;29;20024;-71
2023/06/13 00:05:10;;;;;;;8.57;2.97;;;461.20;2380.80;;;;;;4906311;29;20084;-73
2023/06/13 00:07:37;;;;;;;8.32;3.00;;;461.20;2380.80;;;;;;4919549;29;20059;-74
2023/06/13 00:10:06;;;;;;;6.72;4.32;;;461.10;2380.80;;;;;;4912899;29;20107;-72
2023/06/13 00:12:34;;;;;;;10.13;3.45;;;461.10;2380.80;;;;;;4900774;29;20067;-74
2023/06/13 00:15:01;;;;;;;7.18;3.50;;;461.10;2380.80;;;;;;4900217;29;20408;-71
2023/06/13 00:17:29;;;;;;;5.53;3.28;;;461.10;2380.80;;;;;;4900542;29;20036;-71
2023/06/13 00:19:56;;;;;;;7.07;3.40;;;461.10;2380.80;;;;;;4900602;29;20153;-72
2023/06/13 00:22:23;;;;;;;10.88;3.30;;;461.10;2380.80;;;;;;4900384;29;20125;-71
2023/06/13 00:24:49;;;;;;;13.68;3.92;;;461.10;2380.80;;;;;;4900506;29;20463;-71
2023/06/13 00:27:15;;;;;;;6.53;3.20;;;461.10;2380.80;;;;;;4900351;29;20017;-79
2023/06/13 00:29:40;;;;;;;11.75;3.28;;;461.10;2380.80;;;;;;4900400;29;20068;-71
2023/06/13 00:32:07;;;;;;;5.85;3.22;;;461.10;2380.80;;;;;;4900188;29;20490;-72
2023/06/13 00:34:33;;;;;;;7.40;3.13;;;461.10;2380.80;;;;;;4907067;29;20036;-71
2023/06/13 00:36:59;;;;;;;9.70;4.85;;;461.10;2380.80;;;;;;4905397;29;20027;-71
2023/06/13 00:39:25;;;;;;;7.82;3.47;;;461.10;2380.80;;;;;;4900360;29;20017;-79
2023/06/13 00:41:50;;;;;;;10.30;3.55;;;461.10;2380.80;;;;;;4900044;29;20021;-75
2023/06/13 00:44:16;;;;;;;6.63;3.92;;;461.10;2380.80;;;;;;4900115;29;20483;-71
2023/06/13 00:46:43;;;;;;;7.95;3.97;;;461.10;2380.80;;;;;;4900004;29;20037;-71
2023/06/13 00:49:09;;;;;;;8.32;3.92;;;461.10;2380.80;;;;;;4900169;29;20032;-72
2023/06/13 00:51:40;;;;;;;10.07;3.67;;;461.10;2380.80;;;;;;4899789;29;20049;-79
2023/06/13 00:54:07;;;;;;;12.73;4.07;;;461.10;2380.80;;;;;;4900144;29;20173;-72
2023/06/13 00:56:36;;;;;;;8.70;4.25;;;461.10;2380.80;;;;;;4899810;29;20024;-79
2023/06/13 00:59:03;;;;;;;10.80;4.60;;;461.10;2380.80;;;;;;4900017;29;20036;-72
2023/06/13 01:01:32;;;;;;;6.97;4.38;;;461.10;2380.80;;;;;;4899647;29;20033;-71
2023/06/13 01:04:02;;;;;;;10.23;4.50;;;460.90;2380.80;;;;;;4899763;29;20473;-77
2023/06/13 01:06:30;;;;;;;9.10;3.95;;;460.90;2380.80;;;;;;4899576;29;20053;-71
2023/06/13 01:09:00;;;;;;;7.47;3.58;;;460.90;2380.80;;;;;;4908110;29;20033;-70
2023/06/13 01:11:58;;;;;;;6.72;3.80;;;460.90;2380.80;;;;;;4902311;29;20482;-78
2023/06/13 01:15:08;;;;;;;8.50;3.88;;;460.80;2380.80;;;;;;4899127;29;20619;-75
2023/06/13 01:17:43;;;;;;;8.98;3.78;;;460.90;2380.80;;;;;;4890768;29;20041;-71
2023/06/13 01:20:11;;;;;;;9.88;3.67;;;436.10;2355.20;;;;;;4899569;29;20072;-79
2023/06/13 01:22:37;;;;;;;5.25;3.42;;;460.80;2380.80;;;;;;4899114;29;20051;-71
2023/06/13 01:25:30;;;;;;;5.40;3.85;;;460.80;2380.80;;;;;;4899410;29;20463;-71
2023/06/13 01:27:57;;;;;;;4.95;3.20;;;436.10;2355.20;;;;;;4899179;29;20562;-72
2023/06/13 01:30:24;;;;;;;5.75;4.10;;;436.10;2355.20;;;;;;4899363;29;20036;-73
2023/06/13 01:32:52;;;;;;;7.88;3.63;;;436.00;2355.20;;;;;;4899056;29;20028;-79
2023/06/13 01:35:19;;;;;;;13.45;4.22;;;436.10;2355.20;;;;;;4899084;29;20041;-72
2023/06/13 01:37:45;;;;;;;6.90;3.83;;;436.10;2355.20;;;;;;4898889;29;20036;-79
2023/06/13 01:40:14;;;;;;;6.28;4.55;;;436.10;2355.20;;;;;;4899277;29;20024;-70
2023/06/13 01:42:39;;;;;;;5.18;3.47;;;436.10;2355.20;;;;;;4899041;29;20072;-76
2023/06/13 01:45:06;;;;;;;8.38;3.80;;;435.90;2355.20;;;;;;4899063;29;20032;-71
2023/06/13 01:47:51;;;;;;;6.30;3.80;;;435.80;2355.20;;;;;;4904925;29;20043;-78
2023/06/13 01:50:19;;;;;;;6.85;4.13;;;435.80;2355.20;;;;;;4902736;29;20092;-72
2023/06/13 01:52:51;;;;;;;10.55;4.03;;;435.90;2355.20;;;;;;4898851;29;20036;-76
2023/06/13 01:55:26;;;;;;;8.18;4.40;;;435.80;2355.20;;;;;;4898712;29;20060;-71
2023/06/13 01:58:02;;;;;;;6.83;3.70;;;435.80;2355.20;;;;;;4898753;29;20107;-74
2023/06/13 02:00:28;;;;;;;9.05;4.43;;;435.80;2355.20;;;;;;4898554;29;20267;-72
2023/06/13 02:02:56;;;;;;;6.80;3.50;;;435.80;2355.20;;;;;;4898825;29;20032;-72
2023/06/13 02:05:25;;;;;;;6.90;4.32;;;435.80;2355.20;;;;;;4898773;29;20048;-75
2023/06/13 02:07:53;;;;;;;14.18;5.32;;;435.80;2355.20;;;;;;4898490;29;20127;-71
2023/06/13 02:10:19;;;;;;;13.30;4.47;;;435.70;2355.20;;;;;;4898818;29;20070;-72
2023/06/13 02:12:45;;;;;;;8.20;4.28;;;435.70;2355.20;;;;;;4898561;29;20507;-78
2023/06/13 02:15:11;;;;;;;7.10;4.10;;;435.80;2355.20;;;;;;4898343;29;20052;-71
2023/06/13 02:17:37;;;;;;;8.13;4.00;;;435.80;2355.20;;;;;;4910942;29;20067;-75
2023/06/13 02:20:04;;;;;;;5.60;3.90;;;435.60;2355.20;;;;;;4897618;29;20059;-72
2023/06/13 02:22:30;;;;;;;7.97;4.22;;;435.70;2355.20;;;;;;4911078;29;20032;-71
2023/06/13 02:24:57;;;;;;;6.85;4.22;;;435.70;2355.20;;;;;;4898163;29;20027;-72
2023/06/13 02:27:23;;;;;;;12.15;4.75;;;435.70;2355.20;;;;;;4898245;29;20024;-71
2023/06/13 02:29:48;;;;;;;9.30;4.78;;;435.70;2355.20;;;;;;4898302;29;20084;-71
2023/06/13 02:32:15;;;;;;;8.18;3.67;;;435.60;2355.20;;;;;;4898172;29;20056;-71
2023/06/13 02:34:40;;;;;;;6.53;4.20;;;435.60;2355.20;;;;;;4898374;29;20040;-79
2023/06/13 02:37:06;;;;;;;9.98;4.22;;;435.50;2355.20;;;;;;4898207;29;20036;-70
2023/06/13 02:39:32;;;;;;;10.93;3.75;;;435.30;2355.20;;;;;;4898138;29;20035;-71
2023/06/13 02:41:57;;;;;;;8.05;4.35;;;435.20;2355.20;;;;;;4898155;29;20101;-71
2023/06/13 02:44:23;;;;;;;10.73;4.90;;;435.30;2355.20;;;;;;4898219;29;20029;-71
2023/06/13 02:46:49;;;;;;;13.50;8.63;;;435.30;2355.20;;;;;;4898119;29;20037;-78
2023/06/13 02:49:14;;;;;;;13.20;9.68;;;410.50;2355.20;;;;;;4898277;29;20040;-72
2023/06/13 02:51:40;;;;;;;11.80;8.20;;;410.50;2355.20;;;;;;4897792;29;20036;-76
2023/06/13 02:54:07;;;;;;;6.68;4.60;;;410.50;2355.20;;;;;;4897966;29;20207;-72
2023/06/13 02:56:33;;;;;;;9.80;4.00;;;410.50;2355.20;;;;;;4897876;29;20374;-72
2023/06/13 02:58:59;;;;;;;7.43;4.18;;;435.30;2355.20;;;;;;4897952;29;20033;-71
2023/06/13 03:01:26;;;;;;;6.03;3.88;;;435.30;2355.20;;;;;;4897859;29;20036;-73
2023/06/13 03:03:52;;;;;;;7.13;3.65;;;435.30;2355.20;;;;;;4898000;29;20020;-71
2023/06/13 03:06:18;;;;;;;6.85;3.80;;;410.50;2355.20;;;;;;4897764;29;20032;-71
2023/06/13 03:08:44;;;;;;;7.60;3.55;;;410.50;2355.20;;;;;;4897993;29;20107;-72
2023/06/13 03:11:12;;;;;;;5.78;3.45;;;410.50;2355.20;;;;;;4897811;29;20028;-71
2023/06/13 03:13:38;;;;;;;10.52;4.15;;;435.20;2355.20;;;;;;4897774;29;20024;-71
2023/06/13 03:16:04;;;;;;;7.57;3.75;;;410.50;2355.20;;;;;;4897428;29;20883;-71
2023/06/13 03:18:30;;;;;;;6.05;3.70;;;;;;;;;;4897768;29;20095;-71
2023/06/13 03:20:56;;;;;;;8.02;3.90;;;410.50;2355.20;;;;;;4897869;29;20028;-71
2023/06/13 03:23:22;;;;;;;7.32;3.03;;;410.50;2355.20;;;;;;4897858;29;20044;-71
2023/06/13 03:25:47;;;;;;;12.60;4.00;;;410.50;2355.20;;;;;;4897459;29;20036;-71
2023/06/13 03:28:13;;;;;;;8.50;3.90;;;410.40;2355.20;;;;;;4897728;29;20035;-70
2023/06/13 03:30:39;;;;;;;4.93;3.53;;;410.40;2355.20;;;;;;4898077;29;20064;-72
2023/06/13 03:33:05;;;;;;;7.78;3.40;;;410.20;2355.20;;;;;;4901376;29;20020;-71
2023/06/13 03:35:31;;;;;;;8.00;3.92;;;410.20;2355.20;;;;;;4901158;29;20037;-71
2023/06/13 03:37:57;;;;;;;9.43;5.63;;;410.00;2355.20;;;;;;4901272;29;20040;-71
2023/06/13 03:40:23;;;;;;;10.15;6.95;;;410.00;2355.20;;;;;;4901126;29;20075;-70
2023/06/13 03:42:50;;;;;;;11.27;6.72;;;410.00;2355.20;;;;;;4909113;29;20107;-71
2023/06/13 03:45:17;;;;;;;8.07;5.20;;;410.00;2355.20;;;;;;4905192;29;20024;-71
2023/06/13 03:47:43;;;;;;;7.00;4.22;;;409.90;2355.20;;;;;;4901225;29;20036;-71
2023/06/13 03:50:08;;;;;;;9.80;4.18;;;409.90;2355.20;;;;;;4901035;29;20048;-70
2023/06/13 03:52:34;;;;;;;9.63;3.53;;;410.00;2355.20;;;;;;4900998;29;20048;-71
2023/06/13 03:55:00;;;;;;;7.20;3.50;;;410.00;2355.20;;;;;;4900790;29;20394;-71
2023/06/13 03:57:26;;;;;;;9.50;3.90;;;410.00;2355.20;;;;;;4909127;29;20024;-71
2023/06/13 03:59:52;;;;;;;6.43;3.60;;;410.10;2355.20;;;;;;4906916;29;20032;-71
2023/06/13 04:02:19;;;;;;;8.13;4.18;;;409.90;2355.20;;;;;;4911420;29;20480;-72
2023/06/13 04:04:47;;;;;;;8.23;3.95;;;410.10;2355.20;;;;;;4913246;29;20039;-74
2023/06/13 04:07:13;;;;;;;9.02;4.80;;;410.20;2355.20;;;;;;4900748;29;20028;-70
2023/06/13 04:09:39;;;;;;;9.90;4.45;;;410.00;2355.20;;;;;;4900537;29;20025;-71
2023/06/13 04:12:05;;;;;;;8.73;4.45;;;410.10;2355.20;;;;;;4900707;29;20390;-79
2023/06/13 04:14:32;;;;;;;7.43;4.15;;;410.00;2355.20;;;;;;4900298;29;20091;-79
2023/06/13 04:16:59;;;;;;;5.95;3.88;;;410.00;2355.20;;;;;;4900613;29;20117;-71
2023/06/13 04:19:25;;;;;;;7.75;4.82;;;409.90;2355.20;;;;;;4900663;29;20072;-79
2023/06/13 04:21:54;;;;;;;6.60;4.05;;;409.90;2355.20;;;;;;4900527;29;20116;-71
2023/06/13 04:24:21;;;;;;;8.15;4.07;;;409.80;2355.20;;;;;;4900408;29;20127;-70
2023/06/13 04:26:47;;;;;;;7.45;4.25;;;409.80;2355.20;;;;;;4900507;29;20025;-75
2023/06/13 04:29:15;;;;;;;13.50;4.90;;;409.90;2355.20;;;;;;4900261;29;20033;-71
2023/06/13 04:31:41;;;;;;;7.25;3.90;;;409.80;2355.20;;;;;;4900310;29;20024;-71
2023/06/13 04:34:07;;;;;;;5.70;3.45;;;409.90;2355.20;;;;;;4900220;29;20499;-71
2023/06/13 04:36:35;;;;;;;5.05;3.67;;;409.80;2355.20;;;;;;4895908;29;20021;-71
2023/06/13 04:39:05;;;;;;;6.05;3.83;;;409.90;2355.20;;;;;;4887782;29;20411;-71
2023/06/13 04:41:37;;;;;;;5.65;3.40;;;409.80;2355.20;;;;;;4888025;29;20481;-70
2023/06/13 04:44:09;;;;;;;5.10;3.42;;;409.80;2355.20;;;;;;4887038;29;20029;-71
2023/06/13 04:46:36;;;;;;;10.48;4.30;;;409.70;2355.20;;;;;;4888558;29;20028;-70
2023/06/13 04:49:04;;;;;;;7.22;3.60;;;409.90;2355.20;;;;;;4891064;29;20515;-70
2023/06/13 04:51:32;;;;;;;10.43;3.72;;;409.90;2355.20;;;;;;4892399;29;20073;-73
2023/06/13 04:53:58;;;;;;;6.45;3.72;;;409.80;2355.20;;;;;;4892640;29;20124;-72
2023/06/13 04:56:25;;;;;;;5.25;3.78;;;409.90;2355.20;;;;;;4890232;29;20036;-71
2023/06/13 04:58:52;;;;;;;6.50;4.10;;;409.90;2355.20;;;;;;4897326;29;20039;-71
2023/06/13 05:01:19;;;;;;;5.13;3.55;;;409.90;2355.20;;;;;;4895623;29;20025;-71
2023/06/13 05:03:46;;;;;;;6.50;4.07;;;410.00;2355.20;;;;;;4885948;29;20388;-71
2023/06/13 05:06:12;;;;;;;9.43;3.60;;;410.10;2355.20;;;;;;4891554;29;20052;-72
2023/06/13 05:08:38;;;;;;;9.20;4.15;;;410.20;2355.20;;;;;;4886070;29;20039;-73
2023/06/13 05:11:04;;;;;;;5.82;3.55;;;410.20;2355.20;;;;;;4895498;29;20032;-71
2023/06/13 05:13:30;;;;;;;5.03;3.20;;;410.20;2355.20;;;;;;4887996;29;20039;-74
2023/06/13 05:15:56;;;;;;;9.25;3.47;;;410.40;2355.20;;;;;;4892702;29;20052;-74
2023/06/13 05:18:29;;;;;;;7.57;4.03;;;410.30;2355.20;;;;;;4887699;29;20033;-72
2023/06/13 05:20:59;;;;;;;5.50;3.33;;;410.20;2355.20;;;;;;4888307;29;20025;-72
2023/06/13 05:23:25;;;;;;;8.50;4.47;;;410.30;2355.20;;;;;;4894346;29;20013;-72
2023/06/13 05:25:51;;;;;;;7.10;4.20;;;410.50;2355.20;;;;;;4890567;29;20025;-72
2023/06/13 05:28:17;;;;;;;11.15;5.28;;;410.50;2355.20;;;;;;4886005;29;20028;-75
2023/06/13 05:30:43;;;;;;;7.05;4.35;;;435.20;2355.20;;;;;;4890713;29;20479;-71
2023/06/13 05:33:09;;;;;;;6.10;4.22;;;435.30;2355.20;;;;;;4889152;29;20021;-73
2023/06/13 05:35:35;;;;;;;9.77;5.60;;;435.30;2355.20;;;;;;4885045;29;20111;-72
2023/06/13 05:38:01;;;;;;;11.25;7.85;;;435.30;2355.20;;;;;;4886720;29;20634;-70
2023/06/13 05:40:26;;;;;;;7.43;4.65;;;435.30;2355.20;;;;;;4886857;29;20033;-73
2023/06/13 05:42:52;;;;;;;5.82;4.00;;;435.50;2355.20;;;;;;4886335;29;20033;-71
2023/06/13 05:45:18;;;;;;;10.48;3.53;;;435.50;2355.20;;;;;;4886640;29;20495;-72
2023/06/13 05:47:44;;;;;;;6.00;3.85;;;435.70;2355.20;;;;;;4889982;29;20036;-70
2023/06/13 05:50:11;;;;;;;7.43;3.53;;;435.70;2355.20;;;;;;4886689;29;20483;-71
2023/06/13 05:52:37;;;;;;;7.40;3.60;;;435.60;2355.20;;;;;;4892150;29;20020;-70
2023/06/13 05:55:04;;;;;;;7.60;3.90;;;435.70;2355.20;;;;;;4891979;29;20600;-70
2023/06/13 05:57:40;;;;;;;7.82;3.67;;;435.60;2355.20;;;;;;4890844;29;20021;-71
2023/06/13 06:00:12;;;;;;;7.38;3.75;;;435.80;2355.20;;;;;;4882358;29;20032;-71
2023/06/13 06:02:45;;;;;;;7.38;3.30;;;435.90;2355.20;;;;;;4882456;29;20037;-74
2023/06/13 06:05:11;;;;;;;8.93;3.70;;;436.00;2355.20;;;;;;4887799;29;20031;-72
2023/06/13 06:07:38;;;;;;;6.43;4.07;;;436.00;2355.20;;;;;;4888195;29;20057;-72
2023/06/13 06:10:05;;;;;;;6.90;3.70;;;436.10;2355.20;;;;;;4888792;29;20384;-72
2023/06/13 06:12:31;;;;;;;5.80;4.28;;;436.10;2355.20;;;;;;4884404;29;20048;-72
2023/06/13 06:14:57;;;;;;;6.90;3.95;;;460.80;2380.80;;;;;;4887892;29;20464;-72
2023/06/13 06:17:23;;;;;;;5.80;3.65;;;460.90;2380.80;;;;;;4870886;29;20059;-72
2023/06/13 06:19:48;;;;;;;5.65;3.47;;;460.90;2380.80;;;;;;4888473;29;20041;-71
2023/06/13 06:22:14;;;;;;;5.70;4.00;;;461.10;2380.80;;;;;;4887921;29;20042;-71
2023/06/13 06:24:41;;;;;;;7.38;3.70;;;461.10;2380.80;;;;;;4886191;29;20032;-73
2023/06/13 06:27:07;;;;;;;6.50;4.18;;;461.20;2380.80;;;;;;4886758;29;20483;-73
2023/06/13 06:29:32;;;;;;;9.30;3.88;;;461.30;2380.80;;;;;;4886390;29;20053;-73
2023/06/13 06:31:58;;;;;;;7.13;3.38;;;461.30;2380.80;;;;;;4883930;29;20475;-71
2023/06/13 06:34:24;;;;;;;10.75;4.80;;;461.30;2380.80;;;;;;4887788;29;20039;-72
2023/06/13 06:36:50;;;;;;;6.45;3.72;;;461.30;2380.80;;;;;;4885186;29;20032;-71
2023/06/13 06:39:16;;;;;;;8.52;4.50;;;461.40;2380.80;;;;;;4888821;29;20029;-72
2023/06/13 06:41:42;;;;;;;7.47;4.35;;;461.50;2380.80;;;;;;4888194;29;20104;-71
2023/06/13 06:44:08;;;;;;;6.45;3.72;;;461.50;2380.80;;;;;;4886333;29;20056;-71
2023/06/13 06:46:34;;;;;;;8.07;4.07;;;461.50;2380.80;;;;;;4888318;29;20021;-72
2023/06/13 06:49:01;;;;;;;7.70;3.35;;;461.60;2380.80;;;;;;4886406;29;20025;-71
2023/06/13 06:51:27;;;;;;;7.95;4.07;;;461.70;2380.80;;;;;;4892214;29;20052;-73
2023/06/13 06:53:54;;;;;;;6.38;3.80;;;461.60;2380.80;;;;;;4887107;29;20033;-71
2023/06/13 06:56:20;;;;;;;8.07;3.97;;;461.60;2380.80;;;;;;4881968;29;20029;-71
2023/06/13 06:58:46;;;;;;;7.30;3.47;;;486.40;2380.80;;;;;;4889646;29;20024;-72
2023/06/13 07:01:13;;;;;;;7.40;3.75;;;486.50;2380.80;;;;;;4881526;29;20036;-73
2023/06/13 07:03:40;;;;;;;8.48;3.75;;;486.60;2380.80;;;;;;4879876;29;20050;-72
2023/06/13 07:06:06;;;;;;;7.20;3.58;;;486.50;2380.80;;;;;;4890147;29;20025;-70
2023/06/13 07:08:32;;;;;;;7.68;3.92;;;486.60;2380.80;;;;;;4892574;29;20025;-71
2023/06/13 07:10:58;;;;;;;5.38;3.25;;;486.70;2380.80;;;;;;4888444;29;20025;-74
2023/06/13 07:13:26;;;;;;;7.03;3.95;;;486.80;2380.80;;;;;;4895268;29;20048;-74
2023/06/13 07:15:51;;;;;;;8.35;3.40;;;486.80;2380.80;;;;;;4890169;29;20496;-74
2023/06/13 07:18:17;;;;;;;8.23;3.95;;;487.10;2380.80;;;;;;4897117;29;20036;-72
2023/06/13 07:20:44;;;;;;;6.65;3.50;;;487.10;2380.80;;;;;;4893643;29;20476;-72
2023/06/13 07:23:10;;;;;;;4.93;3.60;;;487.20;2380.80;;;;;;4888010;29;20386;-72
2023/06/13 07:25:36;;;;;;;8.23;4.15;;;487.30;2380.80;;;;;;4891881;29;20021;-71
2023/06/13 07:28:02;;;;;;;8.52;3.83;;;512.20;2380.80;;;;;;4890054;29;20025;-70
2023/06/13 07:30:27;;;;;;;9.05;3.50;;;512.40;2380.80;;;;;;4889348;29;20060;-71
2023/06/13 07:32:53;;;;;;;7.45;3.53;;;512.40;2380.80;;;;;;4896525;29;20514;-71
2023/06/13 07:35:23;;;;;;;8.48;3.22;;;512.50;2380.80;;;;;;4884778;29;20053;-71
2023/06/13 07:37:55;;;;;;;8.00;3.58;;;512.50;2380.80;;;;;;4892945;29;20108;-72
2023/06/13 07:40:21;;;;;;;7.28;4.13;;;512.70;2380.80;;;;;;4891520;29;20032;-72
2023/06/13 07:42:52;;;;;;;7.00;3.33;;;512.80;2380.80;;;;;;4889239;29;20173;-71
2023/06/13 07:45:18;;;;;;;5.35;3.15;;;512.80;2380.80;;;;;;4889215;29;20032;-71
2023/06/13 07:47:44;;;;;;;5.78;3.50;;;537.60;2406.40;;;;;;4889901;29;20044;-73
2023/06/13 07:50:09;;;;;;;5.63;3.05;;;537.80;2406.40;;;;;;4872538;29;20021;-72
2023/06/13 07:52:35;;;;;;;8.27;3.63;;;537.70;2406.40;;;;;;4887687;29;20029;-73
2023/06/13 07:55:01;;;;;;;5.40;3.17;;;538.00;2406.40;;;;;;4889969;29;20032;-71
2023/06/13 07:57:27;;;;;;;6.00;3.65;;;538.00;2406.40;;;;;;4887213;29;20081;-70
2023/06/13 07:59:54;;;;;;;5.47;3.17;;;538.10;2406.40;;;;;;4894334;29;20029;-71
2023/06/13 08:02:20;;;;;;;7.32;3.35;;;538.10;2406.40;;;;;;4892921;29;20032;-72
2023/06/13 08:04:45;;;;;;;6.22;3.55;;;538.20;2380.80;;;;;;4888284;29;20531;-71
2023/06/13 08:07:11;;;;;;;5.45;3.42;;;538.20;2304.00;;;;;;4894809;29;20036;-71
2023/06/13 08:09:37;;;;;;;8.95;3.20;;;538.10;2252.80;;;;;;4888977;29;20035;-70
2023/06/13 08:12:03;;;;;;;7.20;3.45;;;538.00;2227.20;;;;;;4888365;29;20044;-71
2023/06/13 08:14:28;;;;;;;5.43;3.35;;;538.20;2329.60;;;;;;4889594;29;20088;-71
2023/06/13 08:16:54;;;;;;;4.85;3.17;;;538.30;2304.00;;;;;;4890308;29;20026;-71
2023/06/13 08:19:20;;;;;;;4.95;3.13;;;538.30;2278.40;;;;;;4892302;29;20399;-71
2023/06/13 08:21:46;;;;;;;7.43;3.03;;;538.40;2176.00;;;;;;4883320;29;20021;-72
2023/06/13 08:24:13;;;;;;;5.45;3.47;;;538.30;2355.20;;;;;;4888014;29;20104;-71
2023/06/13 08:26:39;;;;;;;8.63;3.65;;;538.50;2406.40;;;;;;4891551;29;20032;-71
2023/06/13 08:29:06;;;;;;;6.75;3.80;;;538.50;2406.40;;;;;;4884901;29;20073;-71
2023/06/13 08:31:32;;;;;;;6.75;2.90;;;563.20;2432.00;;;;;;4885671;29;20028;-71
2023/06/13 08:33:59;;;;;;;5.60;3.40;;;563.20;2150.40;;;;;;4885573;29;20100;-72
2023/06/13 08:36:27;;;;;;;4.93;3.10;;;563.20;2099.20;;;;;;4890412;29;20033;-71
2023/06/13 08:38:59;;;;;;;6.07;3.45;;;563.40;2355.20;;;;;;4887185;29;20094;-72
2023/06/13 08:41:26;;;;;;;8.80;3.80;;;563.40;2201.60;;;;;;4887042;29;20391;-71
2023/06/13 08:43:53;;;;;;;10.70;3.92;;;563.40;2201.60;;;;;;4891938;29;20376;-71
2023/06/13 08:46:19;;;;;;;5.50;2.95;;;563.40;2227.20;;;;;;4892146;29;20036;-69
2023/06/13 08:48:45;;;;;;;5.18;2.95;;;563.60;2124.80;;;;;;4891211;29;20120;-71
2023/06/13 08:51:16;;;;;;;4.47;2.88;;;563.60;2227.20;;;;;;4887548;29;20028;-72
2023/06/13 08:53:59;;;;;;;7.57;3.22;;;563.60;2048.00;;;;;;4892541;29;20032;-72
2023/06/13 08:56:28;;;;;;;5.72;2.78;;;563.60;2176.00;;;;;;4884819;29;20077;-72
2023/06/13 08:59:00;;;;;;;7.50;3.00;;;563.50;1971.20;;;;;;4886565;29;20400;-73
2023/06/13 09:01:27;;;;;;;5.72;2.67;;;563.50;2022.40;;;;;;4893969;29;20018;-71
2023/06/13 09:03:56;;;;;;;4.57;2.75;;;563.70;1996.80;;;;;;4888778;29;20031;-73
2023/06/13 09:06:21;;;;;;;4.88;2.88;;;563.70;1971.20;;;;;;4887754;29;20035;-71
2023/06/13 09:08:48;;;;;;;5.07;2.42;;;564.00;2124.80;;;;;;4887309;29;20036;-71
2023/06/13 09:11:14;;;;;;;5.68;3.33;;;564.10;1996.80;;;;;;4887656;29;20036;-71
2023/06/13 09:13:40;;;;;;;4.88;2.83;;;588.80;2022.40;;;;;;4893028;29;20498;-71
2023/06/13 09:16:06;;;;;;;4.60;2.72;;;588.80;1920.00;;;;;;4892151;29;20105;-72
2023/06/13 09:18:38;;;;;;;8.20;2.88;;;588.80;1868.80;;;;;;4883323;29;20029;-72
2023/06/13 09:21:04;;;;;;;5.65;2.63;;;588.80;1894.40;;;;;;4884032;29;20028;-72
2023/06/13 09:23:32;;;;;;;7.07;2.88;;;588.80;1920.00;;;;;;4889870;29;20020;-70
2023/06/13 09:25:59;;;;;;;3.95;2.33;;;588.90;1971.20;;;;;;4889230;29;20024;-71
2023/06/13 09:28:41;;;;;;;5.97;2.60;;;;;;;;;;4888336;29;20100;-70
2023/06/13 09:31:10;;;;;;;7.32;2.83;;;589.30;1945.60;;;;;;4893903;29;20105;-70
2023/06/13 09:33:37;;;;;;;6.90;2.78;;;589.40;1920.00;;;;;;4883656;29;20029;-72
2023/06/13 09:36:07;;;;;;;4.82;2.40;;;589.50;1792.00;;;;;;4890905;29;20029;-71
2023/06/13 09:38:40;;;;;;;8.65;2.80;;;589.50;1792.00;;;;;;4890725;29;20454;-71
2023/06/13 09:41:08;;;;;;;6.40;2.78;;;589.60;1843.20;;;;;;4883536;29;20029;-71
2023/06/13 09:43:34;;;;;;;3.95;2.75;;;589.60;1894.40;;;;;;4883660;29;20028;-71
2023/06/13 09:46:01;;;;;;;6.80;2.95;;;589.70;1843.20;;;;;;4890213;29;20029;-72
2023/06/13 09:48:27;;;;;;;5.07;2.80;;;614.50;1843.20;;;;;;4888252;29;20104;-71
2023/06/13 09:50:54;;;;;;;3.63;2.33;;;614.50;1792.00;;;;;;4882629;29;20033;-71
2023/06/13 09:53:20;;;;;;;4.85;2.67;;;614.40;1766.40;;;;;;4891529;29;20025;-70
2023/06/13 09:55:48;;;;;;;5.53;2.47;;;614.50;1689.60;;;;;;4882262;29;20032;-71
2023/06/13 09:58:15;;;;;;;8.80;2.85;;;;;;;;;;4890003;29;20020;-70
2023/06/13 10:00:41;;;;;;;8.88;3.15;;;614.90;1792.00;;;;;;4892840;29;20034;-70
2023/06/13 10:03:08;;;;;;;7.72;2.50;;;615.10;1766.40;;;;;;4887536;29;20140;-69
2023/06/13 10:05:34;;;;;;;7.32;3.58;;;615.20;1715.20;;;;;;4887986;29;20021;-70
2023/06/13 10:08:00;;;;;;;6.20;2.78;;;615.20;1612.80;;;;;;4887864;29;20029;-69
2023/06/13 10:10:27;;;;;;;5.70;3.05;;;615.30;1638.40;;;;;;4887218;29;21073;-70
2023/06/13 10:13:03;;;;;;;6.15;2.42;;;615.30;1612.80;;;;;;4886390;29;20088;-71
2023/06/13 10:15:45;;;;;;;10.68;2.53;;;640.00;1561.60;;;;;;4888049;29;20077;-74
2023/06/13 10:18:19;;;;;;;5.15;2.55;;;640.20;1612.80;;;;;;4886174;29;20036;-69
2023/06/13 10:20:48;;;;;;;4.30;2.80;;;640.30;1561.60;;;;;;4889028;29;20035;-76
2023/06/13 10:23:16;;;;;;;6.22;2.55;;;640.40;1587.20;;;;;;4889071;29;20017;-70
2023/06/13 10:25:44;;;;;;;7.93;2.75;;;640.50;1561.60;;;;;;4885451;29;20529;-72
2023/06/13 10:28:24;;;;;;;3.47;1.98;;;640.60;1612.80;;;;;;4887099;29;20116;-77
2023/06/13 10:30:56;;;;;;;5.47;2.58;;;640.70;1561.60;;;;;;4883598;29;20024;-71
2023/06/13 10:33:41;;;;;;;3.35;2.13;;;640.50;1587.20;;;;;;4889663;29;20032;-70
2023/06/13 10:36:16;;;;;;;5.38;2.97;;;640.70;1536.00;;;;;;4887730;29;20396;-73
2023/06/13 10:39:14;;;;;;;5.63;2.20;;;640.70;1561.60;;;;;;4886107;29;20024;-69
2023/06/13 10:41:58;;;;;;;4.65;2.70;;;640.80;1510.40;;;;;;4890173;29;20025;-72
2023/06/13 10:44:31;;;;;;;4.82;2.65;;;640.80;1536.00;;;;;;4895246;29;20802;-70
2023/06/13 10:46:57;;;;;;;4.70;2.58;;;665.60;1510.40;;;;;;4888882;29;20029;-70
2023/06/13 10:49:38;;;;;;;4.72;2.60;;;665.70;1510.40;;;;;;4885464;29;20025;-70
2023/06/13 10:52:09;;;;;;;6.53;2.20;;;665.80;1510.40;;;;;;4883244;29;20021;-70
2023/06/13 10:54:35;;;;;;;4.68;2.17;;;665.90;1561.60;;;;;;4882170;29;20041;-72
2023/06/13 10:57:01;;;;;;;3.22;1.80;;;666.00;1561.60;;;;;;4886228;29;20076;-70
2023/06/13 10:59:35;;;;;;;5.35;1.98;;;666.10;1536.00;;;;;;4885361;29;20049;-71
2023/06/13 11:02:01;;;;;;;5.22;2.33;;;666.00;1561.60;;;;;;4882570;29;20036;-70
2023/06/13 11:04:28;;;;;;;5.32;2.38;;;666.10;1484.80;;;;;;4882237;29;20029;-77
2023/06/13 11:07:20;;;;;;;6.45;2.38;;;666.30;1510.40;;;;;;4891567;29;20029;-70
2023/06/13 11:10:10;;;;;;;3.67;2.40;;;666.50;1510.40;;;;;;4891242;29;20020;-69
2023/06/13 11:12:35;;;;;;;4.22;2.30;;;666.50;1536.00;;;;;;4885965;29;20021;-70
2023/06/13 11:15:02;;;;;;;6.00;2.22;;;691.20;1510.40;;;;;;4882565;29;20459;-69
2023/06/13 11:17:27;;;;;;;5.65;2.67;;;691.20;1510.40;;;;;;4885966;29;20025;-70
2023/06/13 11:19:56;;;;;;;5.18;2.88;;;691.30;1510.40;;;;;;4889574;29;20029;-69
2023/06/13 11:22:22;;;;;;;3.78;2.50;;;691.20;1408.00;;;;;;4893170;29;20020;-74
2023/06/13 11:24:49;;;;;;;4.90;2.80;;;691.20;1356.80;;;;;;4883081;29;20033;-70
2023/06/13 11:27:16;;;;;;;4.80;2.20;;;691.20;1408.00;;;;;;4891883;29;20096;-69
2023/06/13 11:29:46;;;;;;;4.45;2.40;;;691.20;1408.00;;;;;;4882933;29;20037;-69
2023/06/13 11:32:12;;;;;;;3.97;2.30;;;691.30;1484.80;;;;;;4886785;29;20029;-69
2023/06/13 11:34:43;;;;;;;8.10;2.53;;;691.30;1459.20;;;;;;4882630;29;20037;-70
2023/06/13 11:37:44;;;;;;;8.50;2.72;;;691.30;1484.80;;;;;;4887247;29;20024;-71
2023/06/13 11:40:14;;;;;;;5.18;2.42;;;691.40;1433.60;;;;;;4884326;29;20025;-69
2023/06/13 11:42:41;;;;;;;5.35;2.15;;;691.60;1408.00;;;;;;4882716;29;20025;-76
2023/06/13 11:45:07;;;;;;;7.72;2.80;;;691.40;1408.00;;;;;;4882289;29;20068;-75
2023/06/13 11:47:33;;;;;;;3.75;2.17;;;691.50;1433.60;;;;;;4891292;29;20063;-73
2023/06/13 11:49:59;;;;;;;6.10;2.42;;;691.60;1459.20;;;;;;4883689;29;20049;-71
2023/06/13 11:52:25;;;;;;;5.53;2.13;;;691.60;1408.00;;;;;;4888035;29;20053;-71
2023/06/13 11:54:50;;;;;;;4.10;2.30;;;691.60;1408.00;;;;;;4901106;29;20055;-73
2023/06/13 11:57:20;;;;;;;3.35;2.22;;;691.60;1382.40;;;;;;4901018;29;20021;-72
2023/06/13 11:59:45;;;;;;;3.97;2.20;;;691.70;1382.40;;;;;;4901342;29;20029;-72
2023/06/13 12:02:15;;;;;;;7.43;3.13;;;691.70;1331.20;;;;;;4901143;29;20131;-72
2023/06/13 12:04:42;;;;;;;5.25;2.38;;;691.60;1280.00;;;;;;4900532;29;20036;-73
2023/06/13 12:07:08;;;;;;;3.95;2.40;;;691.80;1280.00;;;;;;4900721;29;20029;-71
2023/06/13 12:09:34;;;;;;;4.65;2.30;;;691.80;1305.60;;;;;;4913042;29;20549;-70
2023/06/13 12:12:01;;;;;;;7.28;2.53;;;691.60;1305.60;;;;;;4900555;29;20037;-71
2023/06/13 12:14:31;;;;;;;6.05;2.50;;;691.90;1331.20;;;;;;4900071;29;20044;-71
2023/06/13 12:16:56;;;;;;;5.82;2.72;;;691.80;1305.60;;;;;;4900455;29;20028;-71
2023/06/13 12:19:23;;;;;;;9.35;2.67;;;691.90;1254.40;;;;;;4883579;29;20037;-71
2023/06/13 12:21:51;;;;;;;6.75;2.42;;;691.70;1280.00;;;;;;4909248;29;20024;-77